Time;durP1;ratioP1;P1;durP2;ratioP2;P2;SDS_P1;SDS_P2;PMS_P1;PMS_P2;Temp;Humidity;BMP_temperature;BMP_pressure;BME280_temperature;BME280_humidity;BME280_pressure;Samples;Min_cycle;Max_cycle;Signal;HPM_P1;HPM_P2
2021/11/20 00:02:01;;;;;;;7.20;4.10;;;;;;;8.10;90.61;97089.42;105296;1309;28508;-83
2021/11/20 00:04:32;;;;;;;7.60;4.20;;;;;;;8.09;90.60;97094.77;105180;1316;29154;-83
2021/11/20 00:07:05;;;;;;;7.20;3.60;;;;;;;8.11;90.30;97080.93;105315;1310;28198;-83
2021/11/20 00:09:36;;;;;;;9.00;5.10;;;;;;;8.10;90.41;97091.70;105124;1314;29519;-84
2021/11/20 00:12:11;;;;;;;8.40;4.70;;;;;;;8.08;90.65;97094.07;105304;1315;28399;-83
2021/11/20 00:14:42;;;;;;;7.80;4.30;;;;;;;8.07;90.73;97094.33;105372;1309;26711;-84
2021/11/20 00:17:14;;;;;;;6.30;3.70;;;;;;;8.07;90.85;97101.73;105297;1315;26647;-81
2021/11/20 00:19:45;;;;;;;5.00;3.50;;;;;;;8.05;91.01;97101.44;105327;1314;25620;-83
2021/11/20 00:22:20;;;;;;;7.80;4.00;;;;;;;8.04;91.03;97103.33;105296;1316;27969;-83
2021/11/20 00:24:53;;;;;;;7.30;4.80;;;;;;;8.05;91.17;97097.90;105330;1312;29091;-83
2021/11/20 00:27:32;;;;;;;9.90;5.40;;;;;;;8.02;91.12;97095.73;105317;1316;31689;-83
2021/11/20 00:30:14;;;;;;;8.80;5.50;;;;;;;8.03;91.17;97091.76;105312;1313;28099;-83
2021/11/20 00:32:49;;;;;;;6.50;4.30;;;;;;;8.04;91.05;97094.98;105286;1313;30148;-83
2021/11/20 00:35:24;;;;;;;7.10;4.80;;;;;;;8.06;91.02;97096.33;105282;1310;29674;-82
2021/11/20 00:37:55;;;;;;;8.30;5.00;;;;;;;8.07;91.01;97105.79;105334;1314;27362;-83
2021/11/20 00:40:29;;;;;;;8.70;5.10;;;;;;;8.07;90.95;97103.15;105294;1316;30501;-82
2021/11/20 00:43:01;;;;;;;6.80;3.80;;;;;;;8.09;90.82;97103.53;105229;1312;29672;-84
2021/11/20 00:45:33;;;;;;;9.70;5.00;;;;;;;8.10;90.73;97093.59;105255;1310;27674;-84
2021/11/20 00:48:06;;;;;;;7.40;5.00;;;;;;;8.09;90.93;97084.25;105279;1312;26394;-84
2021/11/20 00:50:42;;;;;;;5.30;3.50;;;;;;;8.08;90.99;97086.04;105219;1312;37297;-84
2021/11/20 00:53:14;;;;;;;10.20;4.70;;;;;;;8.06;91.03;97084.13;105362;1309;29189;-84
2021/11/20 00:55:45;;;;;;;7.00;4.90;;;;;;;8.08;90.94;97083.02;105261;1309;37442;-83
2021/11/20 00:58:17;;;;;;;7.50;4.60;;;;;;;8.09;90.93;97082.67;105343;1314;28925;-84
2021/11/20 01:00:52;;;;;;;6.10;4.10;;;;;;;8.09;90.96;97070.83;105308;1314;29834;-84
2021/11/20 01:03:24;;;;;;;8.00;5.10;;;;;;;8.09;90.91;97066.81;105300;1316;25572;-83
2021/11/20 01:05:55;;;;;;;10.40;5.60;;;;;;;8.10;90.70;97061.77;105238;1316;31873;-82
2021/11/20 01:08:33;;;;;;;5.90;4.60;;;;;;;8.11;90.47;97066.30;105182;1312;33837;-82
2021/11/20 01:11:09;;;;;;;8.30;5.10;;;;;;;8.12;90.28;97060.66;105302;1311;28244;-83
2021/11/20 01:13:41;;;;;;;8.60;5.80;;;;;;;8.11;90.23;97064.10;105365;1313;32016;-83
2021/11/20 01:16:14;;;;;;;8.10;5.20;;;;;;;8.14;89.79;97063.38;105318;1313;75772;-83
2021/11/20 01:18:46;;;;;;;8.50;5.50;;;;;;;8.14;89.77;97076.15;105283;1316;29033;-82
2021/11/20 01:21:18;;;;;;;8.90;4.80;;;;;;;8.13;89.71;97073.52;105361;1310;25878;-83
2021/11/20 01:23:50;;;;;;;8.10;5.20;;;;;;;8.12;89.76;97079.58;105360;1313;27362;-83
2021/11/20 01:26:23;;;;;;;7.10;4.50;;;;;;;8.11;89.74;97074.66;105359;1314;25905;-82
2021/11/20 01:28:56;;;;;;;9.30;4.80;;;;;;;8.12;89.41;97077.89;105303;1314;27773;-82
2021/11/20 01:31:30;;;;;;;8.80;4.80;;;;;;;8.13;89.26;97075.73;105353;1312;27709;-83
2021/11/20 01:34:01;;;;;;;8.80;5.60;;;;;;;8.14;88.77;97078.75;105375;1313;26978;-82
2021/11/20 01:36:36;;;;;;;5.80;4.50;;;;;;;8.13;88.65;97075.04;105161;1316;25638;-83
2021/11/20 01:39:11;;;;;;;5.70;3.70;;;;;;;8.13;88.27;97077.00;105312;1315;37247;-83
2021/11/20 01:41:45;;;;;;;7.30;4.60;;;;;;;8.13;87.78;97056.82;105368;1315;27291;-83
2021/11/20 01:44:21;;;;;;;5.70;3.70;;;;;;;8.12;87.45;97061.09;105316;1310;31468;-82
2021/11/20 01:46:55;;;;;;;10.20;4.10;;;;;;;8.10;87.67;97063.98;105366;1309;27142;-83
2021/11/20 01:49:29;;;;;;;7.50;4.60;;;;;;;8.07;87.72;97061.33;105336;1313;26226;-83
2021/11/20 01:52:07;;;;;;;6.90;4.30;;;;;;;8.04;87.91;97043.92;105327;1315;26381;-83
2021/11/20 01:54:52;;;;;;;6.10;3.40;;;;;;;8.05;87.68;97027.35;105336;1313;26180;-83
2021/11/20 01:57:29;;;;;;;6.80;5.00;;;;;;;8.08;87.61;97028.58;105340;1315;25457;-83
2021/11/20 02:00:16;;;;;;;7.00;3.80;;;;;;;8.07;87.61;97030.73;105340;1309;26874;-83
2021/11/20 02:02:52;;;;;;;4.30;2.70;;;;;;;8.04;87.61;97036.21;105299;1315;27184;-83
2021/11/20 02:05:28;;;;;;;5.40;3.30;;;;;;;8.02;87.92;97031.08;105356;1312;27769;-82
2021/11/20 02:08:06;;;;;;;8.00;3.80;;;;;;;8.00;87.99;97017.36;105326;1309;30461;-83
2021/11/20 02:10:44;;;;;;;6.00;3.40;;;;;;;8.00;88.09;97023.75;105308;1315;27504;-83
2021/11/20 02:13:19;;;;;;;8.90;3.50;;;;;;;8.00;88.02;97009.08;105303;1316;28618;-82
2021/11/20 02:15:58;;;;;;;5.70;4.00;;;;;;;7.99;88.07;97020.89;105124;1315;25350;-82
2021/11/20 02:18:31;;;;;;;5.30;3.70;;;;;;;7.98;88.24;97019.09;105292;1310;25890;-82
2021/11/20 02:21:12;;;;;;;6.10;3.40;;;;;;;7.99;88.21;97012.13;105303;1316;25182;-83
2021/11/20 02:23:39;;;;;;;6.90;2.90;;;;;;;7.98;88.17;97004.10;105369;1316;33451;-83
2021/11/20 02:26:07;;;;;;;4.90;2.80;;;;;;;8.00;88.23;97007.48;105382;1313;27552;-83
2021/11/20 02:28:39;;;;;;;5.70;3.50;;;;;;;7.98;88.47;96998.61;105426;1309;30176;-83
2021/11/20 02:31:10;;;;;;;9.80;2.80;;;;;;;7.98;88.46;97003.89;105357;1316;28409;-82
2021/11/20 02:33:43;;;;;;;4.90;3.10;;;;;;;7.97;88.53;97005.56;105356;1316;28792;-83
2021/11/20 02:36:16;;;;;;;6.60;3.80;;;;;;;7.98;88.38;97005.00;105347;1316;27762;-82
2021/11/20 02:39:01;;;;;;;3.80;3.00;;;;;;;7.98;88.44;96990.73;105332;1314;37580;-83
2021/11/20 02:41:35;;;;;;;5.10;3.30;;;;;;;7.95;88.58;97010.36;105325;1316;25208;-83
2021/11/20 02:44:08;;;;;;;3.50;2.70;;;;;;;7.93;88.70;97006.54;105327;1315;26244;-84
2021/11/20 02:46:43;;;;;;;6.20;3.30;;;;;;;7.91;88.66;96997.88;105373;1315;24735;-83
2021/11/20 02:49:15;;;;;;;5.90;3.30;;;;;;;7.86;88.98;96997.17;105322;1316;26612;-82
2021/11/20 02:51:56;;;;;;;4.90;2.80;;;;;;;7.84;89.04;96993.67;105308;1316;27827;-83
2021/11/20 02:54:26;;;;;;;;;;;;;;;7.84;89.38;96997.42;105315;1316;28270;-82
2021/11/20 02:56:59;;;;;;;10.00;3.00;;;;;;;7.82;89.56;97007.77;105337;1315;29268;-82
2021/11/20 02:59:30;;;;;;;3.80;2.60;;;;;;;7.81;89.81;97007.13;105370;1316;27113;-83
2021/11/20 03:02:01;;;;;;;4.20;2.30;;;;;;;7.82;90.06;97008.92;105355;1316;26185;-83
2021/11/20 03:04:33;;;;;;;6.50;3.00;;;;;;;7.79;90.17;97002.73;105319;1310;26302;-83
2021/11/20 03:07:03;;;;;;;5.60;3.00;;;;;;;7.75;90.47;96992.98;105285;1314;32035;-83
2021/11/20 03:09:37;;;;;;;3.40;2.50;;;;;;;7.71;90.57;96992.56;105362;1316;25989;-83
2021/11/20 03:12:12;;;;;;;5.50;3.30;;;;;;;7.69;90.93;97002.89;105316;1316;27701;-83
2021/11/20 03:14:44;;;;;;;5.80;3.20;;;;;;;7.68;90.88;97009.80;105407;1316;27515;-83
2021/11/20 03:17:15;;;;;;;5.10;2.50;;;;;;;7.68;91.19;96999.08;105321;1316;27565;-82
2021/11/20 03:19:48;;;;;;;3.30;1.50;;;;;;;7.74;91.34;96972.59;105294;1316;26743;-82
2021/11/20 03:22:23;;;;;;;3.70;2.30;;;;;;;7.77;91.34;96978.16;105364;1315;25619;-82
2021/11/20 03:24:54;;;;;;;3.30;2.20;;;;;;;7.80;91.35;96981.88;105331;1314;27350;-83
2021/11/20 03:27:25;;;;;;;3.60;2.20;;;;;;;7.80;91.33;96981.41;105318;1315;28062;-83
2021/11/20 03:29:56;;;;;;;2.90;1.70;;;;;;;7.77;91.39;96989.67;105317;1316;31942;-82
2021/11/20 03:32:27;;;;;;;3.10;2.60;;;;;;;7.76;91.58;96997.21;105324;1316;28828;-82
2021/11/20 03:34:58;;;;;;;6.20;2.70;;;;;;;7.76;91.68;97006.92;105319;1315;25648;-82
2021/11/20 03:37:29;;;;;;;3.20;2.30;;;;;;;7.80;91.71;96992.27;105351;1316;25996;-83
2021/11/20 03:40:00;;;;;;;4.50;2.60;;;;;;;7.81;91.52;97005.74;105288;1315;28390;-83
2021/11/20 03:42:31;;;;;;;2.80;2.10;;;;;;;7.81;91.52;97002.59;105272;1315;28328;-82
2021/11/20 03:45:02;;;;;;;4.10;3.00;;;;;;;7.81;91.56;97015.67;105308;1315;30078;-82
2021/11/20 03:47:33;;;;;;;4.50;3.10;;;;;;;7.81;91.72;97023.33;105290;1316;29204;-83
2021/11/20 03:50:09;;;;;;;7.00;3.00;;;;;;;7.78;91.63;97019.29;105307;1310;30951;-83
2021/11/20 03:52:40;;;;;;;4.50;2.10;;;;;;;7.75;91.78;97022.49;105366;1316;37584;-83
2021/11/20 03:55:16;;;;;;;3.90;2.40;;;;;;;7.76;91.92;97028.77;105432;1316;26254;-82
2021/11/20 03:57:47;;;;;;;5.40;2.70;;;;;;;7.77;92.01;97014.73;105351;1315;29275;-83
2021/11/20 04:00:21;;;;;;;3.70;2.40;;;;;;;7.78;92.00;97012.21;105280;1313;27873;-83
2021/11/20 04:02:52;;;;;;;5.20;3.20;;;;;;;7.78;92.16;97015.80;105221;1315;28192;-82
2021/11/20 04:05:26;;;;;;;3.90;2.80;;;;;;;7.78;92.32;97018.98;105292;1316;29024;-82
2021/11/20 04:07:57;;;;;;;5.80;2.20;;;;;;;7.78;92.43;97018.81;105261;1315;30602;-83
2021/11/20 04:10:28;;;;;;;6.70;2.20;;;;;;;7.77;92.50;97024.30;105282;1316;31877;-83
2021/11/20 04:13:00;;;;;;;3.50;2.30;;;;;;;7.74;92.60;97032.30;105217;1315;29698;-83
2021/11/20 04:15:31;;;;;;;3.40;2.50;;;;;;;7.73;92.77;97026.72;105289;1310;28769;-83
2021/11/20 04:18:02;;;;;;;3.50;2.30;;;;;;;7.72;92.92;97036.33;105285;1316;29215;-83
2021/11/20 04:20:34;;;;;;;4.80;2.90;;;;;;;7.74;92.91;97056.21;105290;1316;29537;-83
2021/11/20 04:23:06;;;;;;;3.00;2.20;;;;;;;7.76;93.09;97050.09;105302;1316;29089;-82
2021/11/20 04:25:37;;;;;;;4.10;2.70;;;;;;;7.75;93.18;97065.51;105298;1309;29738;-83
2021/11/20 04:28:08;;;;;;;4.60;2.90;;;;;;;7.71;93.27;97061.97;105313;1311;29336;-82
2021/11/20 04:30:41;;;;;;;4.70;2.30;;;;;;;7.70;93.33;97059.33;105310;1309;30670;-83
2021/11/20 04:33:12;;;;;;;4.20;2.70;;;;;;;7.68;93.53;97061.41;105372;1316;31170;-83
2021/11/20 04:35:44;;;;;;;5.30;3.10;;;;;;;7.66;93.69;97063.61;105218;1316;28996;-83
2021/11/20 04:38:16;;;;;;;4.60;3.10;;;;;;;7.64;93.84;97072.26;105288;1313;29396;-82
2021/11/20 04:40:47;;;;;;;3.80;2.50;;;;;;;7.64;94.03;97078.37;105311;1316;28643;-82
2021/11/20 04:43:18;;;;;;;4.40;2.70;;;;;;;7.62;94.15;97068.54;105243;1316;35391;-83
2021/11/20 04:45:51;;;;;;;4.90;3.00;;;;;;;7.61;94.17;97079.02;105271;1312;29377;-82
2021/11/20 04:48:22;;;;;;;3.70;2.80;;;;;;;7.60;94.21;97079.00;105284;1314;40332;-82
2021/11/20 04:50:56;;;;;;;5.90;2.90;;;;;;;7.57;94.50;97078.95;105264;1316;28910;-83
2021/11/20 04:53:28;;;;;;;3.20;2.60;;;;;;;7.53;94.76;97078.35;105287;1314;27396;-83
2021/11/20 04:55:59;;;;;;;5.00;2.90;;;;;;;7.50;94.93;97083.39;105314;1315;28507;-82
2021/11/20 04:58:30;;;;;;;3.70;2.30;;;;;;;7.51;95.27;97079.50;105264;1316;28019;-83
2021/11/20 05:01:02;;;;;;;4.60;2.40;;;;;;;7.55;95.48;97090.18;105300;1309;27684;-82
2021/11/20 05:03:34;;;;;;;4.50;2.70;;;;;;;7.54;95.68;97067.75;105153;1315;29230;-83
2021/11/20 05:06:06;;;;;;;3.50;2.70;;;;;;;7.50;95.91;97070.30;105248;1316;28838;-83
2021/11/20 05:08:38;;;;;;;3.00;1.80;;;;;;;7.45;96.17;97068.70;105272;1309;26922;-83
2021/11/20 05:11:10;;;;;;;3.20;1.90;;;;;;;7.44;96.29;97069.58;105355;1310;26869;-83
2021/11/20 05:13:42;;;;;;;3.30;2.30;;;;;;;7.45;96.62;97067.30;105348;1313;27000;-82
2021/11/20 05:16:15;;;;;;;4.00;1.80;;;;;;;7.49;96.77;97073.98;105357;1315;26699;-83
2021/11/20 05:18:47;;;;;;;2.70;2.20;;;;;;;7.51;96.70;97068.62;105249;1310;29885;-83
2021/11/20 05:21:19;;;;;;;2.80;2.50;;;;;;;7.54;96.76;97069.44;105212;1316;27880;-82
2021/11/20 05:23:51;;;;;;;2.50;1.60;;;;;;;7.58;96.64;97072.42;105225;1309;29437;-83
2021/11/20 05:26:22;;;;;;;3.80;2.80;;;;;;;7.60;96.53;97081.27;105186;1313;27638;-82
2021/11/20 05:29:01;;;;;;;3.10;2.10;;;;;;;7.61;96.41;97080.20;105304;1315;28068;-82
2021/11/20 05:31:33;;;;;;;2.60;2.00;;;;;;;7.61;96.37;97079.83;105241;1316;26880;-82
2021/11/20 05:34:04;;;;;;;3.20;2.50;;;;;;;7.64;96.34;97069.77;105299;1315;26396;-83
2021/11/20 05:36:37;;;;;;;2.40;1.90;;;;;;;7.65;96.38;97080.12;105217;1315;26250;-83
2021/11/20 05:39:09;;;;;;;2.70;2.00;;;;;;;7.68;96.24;97080.52;105377;1316;26855;-82
2021/11/20 05:41:40;;;;;;;3.70;1.80;;;;;;;7.70;96.31;97075.73;105367;1313;27050;-83
2021/11/20 05:44:17;;;;;;;2.70;2.00;;;;;;;7.70;96.21;97078.94;105323;1313;29328;-82
2021/11/20 05:46:48;;;;;;;3.80;2.50;;;;;;;7.72;96.26;97073.11;105251;1309;37158;-82
2021/11/20 05:49:19;;;;;;;5.20;3.00;;;;;;;7.73;96.21;97081.14;105283;1309;29360;-83
2021/11/20 05:51:50;;;;;;;4.10;2.90;;;;;;;7.72;96.10;97079.39;105259;1313;29807;-82
2021/11/20 05:54:21;;;;;;;3.80;2.40;;;;;;;7.72;96.06;97081.02;105332;1316;25292;-82
2021/11/20 05:56:53;;;;;;;3.40;2.70;;;;;;;7.73;96.00;97080.26;105277;1313;28505;-82
2021/11/20 05:59:24;;;;;;;2.10;1.80;;;;;;;7.74;95.95;97084.59;105274;1315;26307;-82
2021/11/20 06:01:56;;;;;;;4.80;2.90;;;;;;;7.76;96.01;97093.29;105249;1314;27979;-82
2021/11/20 06:04:29;;;;;;;4.00;2.70;;;;;;;7.77;95.84;97079.77;105305;1309;27823;-83
2021/11/20 06:07:01;;;;;;;2.60;2.40;;;;;;;7.81;95.86;97088.79;105294;1316;27460;-82
2021/11/20 06:09:32;;;;;;;3.20;2.30;;;;;;;7.84;95.61;97098.42;105248;1309;30059;-82
2021/11/20 06:12:03;;;;;;;5.10;3.30;;;;;;;7.87;95.37;97109.06;105325;1309;30526;-82
2021/11/20 06:14:34;;;;;;;3.20;2.90;;;;;;;7.87;95.33;97120.40;105343;1314;26154;-83
2021/11/20 06:17:06;;;;;;;5.00;2.90;;;;;;;7.87;95.23;97126.58;105338;1309;28070;-82
2021/11/20 06:19:37;;;;;;;4.00;2.50;;;;;;;7.89;95.06;97120.60;105359;1315;29053;-82
2021/11/20 06:22:08;;;;;;;5.80;3.00;;;;;;;7.95;94.76;97132.59;105273;1316;27625;-82
2021/11/20 06:24:39;;;;;;;3.80;2.90;;;;;;;7.97;94.47;97140.79;105236;1316;27441;-83
2021/11/20 06:27:10;;;;;;;5.50;3.20;;;;;;;7.98;94.51;97141.17;105349;1314;25476;-83
2021/11/20 06:29:42;;;;;;;4.60;3.30;;;;;;;7.99;94.41;97146.30;105344;1314;25287;-83
2021/11/20 06:32:13;;;;;;;6.00;3.20;;;;;;;7.98;94.12;97142.80;105303;1309;23757;-83
2021/11/20 06:34:45;;;;;;;3.40;2.60;;;;;;;8.02;93.71;97140.38;105286;1315;30129;-81
2021/11/20 06:37:16;;;;;;;4.20;2.60;;;;;;;8.08;93.15;97131.09;105280;1315;25983;-82
2021/11/20 06:39:48;;;;;;;3.10;2.40;;;;;;;8.09;92.70;97132.05;105205;1313;27194;-82
2021/11/20 06:42:19;;;;;;;4.00;2.60;;;;;;;8.13;92.33;97135.52;105152;1314;25476;-83
2021/11/20 06:44:50;;;;;;;2.20;2.00;;;;;;;8.13;92.01;97133.14;105311;1314;27350;-83
2021/11/20 06:47:21;;;;;;;4.30;3.10;;;;;;;8.15;91.71;97135.69;105285;1313;30778;-83
2021/11/20 06:49:53;;;;;;;4.70;2.80;;;;;;;8.16;91.41;97150.33;105260;1313;28214;-82
2021/11/20 06:52:24;;;;;;;3.60;2.80;;;;;;;8.15;91.64;97154.02;105228;1315;30195;-83
2021/11/20 06:54:55;;;;;;;5.90;3.30;;;;;;;8.15;91.54;97156.81;105309;1310;27683;-83
2021/11/20 06:57:51;;;;;;;3.70;2.50;;;;;;;8.15;91.49;97164.20;105272;1314;35585;-85
2021/11/20 07:00:28;;;;;;;6.00;2.90;;;;;;;8.16;91.31;97162.27;105262;1314;32618;-84
2021/11/20 07:03:03;;;;;;;5.20;3.60;;;;;;;8.16;91.26;97166.38;105255;1314;28963;-84
2021/11/20 07:05:40;;;;;;;3.00;2.50;;;;;;;8.16;91.30;97170.24;105301;1310;28621;-84
2021/11/20 07:08:13;;;;;;;6.50;4.10;;;;;;;8.16;91.07;97172.27;105289;1310;33052;-84
2021/11/20 07:10:45;;;;;;;5.90;3.90;;;;;;;8.17;91.14;97172.50;105248;1310;28478;-82
2021/11/20 07:13:19;;;;;;;4.30;3.00;;;;;;;8.17;91.25;97174.14;105342;1310;24464;-84
2021/11/20 07:15:51;;;;;;;4.20;3.60;;;;;;;8.18;91.03;97181.85;105317;1309;27152;-84
2021/11/20 07:18:24;;;;;;;4.40;3.30;;;;;;;8.19;90.95;97185.19;105362;1315;28224;-84
2021/11/20 07:20:55;;;;;;;4.50;3.10;;;;;;;8.21;90.32;97182.83;105241;1313;27978;-83
2021/11/20 07:23:28;;;;;;;8.00;2.60;;;;;;;8.23;90.14;97182.06;105131;1312;32114;-82
2021/11/20 07:26:00;;;;;;;5.30;3.80;;;;;;;8.25;89.99;97191.15;105290;1315;29779;-83
2021/11/20 07:28:32;;;;;;;5.20;3.60;;;;;;;8.25;89.99;97195.07;105306;1310;28225;-82
2021/11/20 07:31:03;;;;;;;6.10;3.90;;;;;;;8.26;89.78;97194.96;105248;1314;27735;-82
2021/11/20 07:33:34;;;;;;;6.90;3.90;;;;;;;8.27;89.30;97190.90;105238;1312;32800;-83
2021/11/20 07:36:08;;;;;;;8.10;4.30;;;;;;;8.29;88.89;97195.84;105288;1314;33585;-83
2021/11/20 07:38:41;;;;;;;9.20;5.00;;;;;;;8.32;88.71;97198.38;105262;1309;34443;-83
2021/11/20 07:41:13;;;;;;;6.90;4.30;;;;;;;8.33;88.73;97199.07;105343;1316;35096;-83
2021/11/20 07:43:44;;;;;;;9.40;4.90;;;;;;;8.35;88.69;97190.66;105369;1315;28190;-82
2021/11/20 07:46:18;;;;;;;6.90;4.20;;;;;;;8.36;88.68;97191.20;105333;1315;25990;-82
2021/11/20 07:48:50;;;;;;;8.00;4.60;;;;;;;8.37;88.46;97198.34;105311;1315;28334;-82
2021/11/20 07:51:22;;;;;;;7.50;3.50;;;;;;;8.39;88.27;97186.51;105330;1310;30144;-83
2021/11/20 07:53:53;;;;;;;6.70;3.40;;;;;;;8.40;87.84;97192.92;105275;1309;28825;-82
2021/11/20 07:56:27;;;;;;;5.80;3.50;;;;;;;8.44;87.27;97178.84;105318;1315;33923;-83
2021/11/20 07:58:59;;;;;;;6.20;4.10;;;;;;;8.48;86.55;97186.71;105305;1316;27459;-84
2021/11/20 08:01:30;;;;;;;4.50;3.50;;;;;;;8.49;86.39;97184.77;105268;1316;31300;-83
2021/11/20 08:04:01;;;;;;;8.40;4.50;;;;;;;8.52;86.33;97186.73;105259;1312;28400;-84
2021/11/20 08:06:34;;;;;;;6.20;4.40;;;;;;;8.52;86.51;97187.96;105290;1314;30305;-83
2021/11/20 08:09:08;;;;;;;6.30;3.60;;;;;;;8.51;86.18;97183.63;105304;1315;35889;-83
2021/11/20 08:11:41;;;;;;;6.80;4.20;;;;;;;8.54;85.87;97191.78;105235;1314;27615;-84
2021/11/20 08:14:13;;;;;;;9.00;3.40;;;;;;;8.56;85.31;97188.30;105311;1316;39733;-84
2021/11/20 08:16:44;;;;;;;5.50;4.00;;;;;;;8.56;85.39;97183.66;105354;1310;25993;-84
2021/11/20 08:19:16;;;;;;;5.60;3.90;;;;;;;8.56;85.73;97179.16;105256;1313;27572;-83
2021/11/20 08:21:47;;;;;;;7.10;4.70;;;;;;;8.57;85.27;97178.96;105316;1314;28955;-84
2021/11/20 08:24:19;;;;;;;7.30;5.00;;;;;;;8.57;85.44;97191.75;105299;1313;29179;-84
2021/11/20 08:26:50;;;;;;;8.30;4.80;;;;;;;8.58;85.37;97186.31;105347;1309;27103;-84
2021/11/20 08:29:23;;;;;;;5.90;4.20;;;;;;;8.60;85.68;97195.50;105332;1315;33463;-85
2021/11/20 08:31:55;;;;;;;5.20;3.80;;;;;;;8.60;85.20;97190.89;105290;1315;29974;-84
2021/11/20 08:34:27;;;;;;;7.90;4.90;;;;;;;8.59;85.29;97200.67;105278;1313;26070;-85
2021/11/20 08:37:00;;;;;;;6.30;3.90;;;;;;;8.61;85.46;97199.11;105246;1316;38026;-85
2021/11/20 08:39:32;;;;;;;11.70;4.80;;;;;;;8.64;85.21;97194.10;105208;1309;67724;-86
2021/11/20 08:42:05;;;;;;;6.10;3.30;;;;;;;8.64;84.93;97191.23;105270;1310;30371;-85
2021/11/20 08:44:36;;;;;;;5.20;3.40;;;;;;;8.66;84.14;97193.11;105247;1315;33534;-84
2021/11/20 08:47:07;;;;;;;6.40;3.10;;;;;;;8.70;84.09;97205.24;105243;1309;34789;-84
2021/11/20 08:49:39;;;;;;;8.80;4.40;;;;;;;8.71;83.71;97208.11;105195;1316;30833;-84
2021/11/20 08:52:10;;;;;;;5.40;3.00;;;;;;;8.78;83.59;97213.73;105324;1314;29865;-84
2021/11/20 08:54:41;;;;;;;8.00;3.80;;;;;;;8.83;83.26;97209.74;105305;1313;26179;-84
2021/11/20 08:57:15;;;;;;;7.00;3.80;;;;;;;8.84;83.16;97206.31;105281;1309;30334;-83
2021/11/20 08:59:46;;;;;;;6.30;4.30;;;;;;;8.82;83.06;97208.85;105223;1314;28142;-84
2021/11/20 09:02:21;;;;;;;7.30;4.30;;;;;;;8.85;83.50;97213.42;105229;1316;36398;-83
2021/11/20 09:04:55;;;;;;;6.10;3.90;;;;;;;8.92;83.45;97206.13;105278;1313;27166;-84
2021/11/20 09:07:35;;;;;;;5.50;3.20;;;;;;;8.98;83.29;97201.67;105213;1313;40771;-84
2021/11/20 09:10:12;;;;;;;4.40;3.10;;;;;;;8.98;82.67;97196.75;105348;1309;30188;-84
2021/11/20 09:12:48;;;;;;;5.50;3.30;;;;;;;9.00;82.31;97200.14;105422;1315;27606;-84
2021/11/20 09:15:23;;;;;;;4.00;3.20;;;;;;;9.03;82.19;97194.05;105354;1311;24832;-83
2021/11/20 09:17:55;;;;;;;6.20;4.20;;;;;;;9.01;82.44;97194.46;105330;1310;29732;-84
2021/11/20 09:20:28;;;;;;;5.30;3.80;;;;;;;9.03;82.72;97194.05;105312;1311;50222;-85
2021/11/20 09:22:59;;;;;;;6.20;3.60;;;;;;;9.03;82.51;97193.04;105400;1309;27310;-84
2021/11/20 09:25:30;;;;;;;6.60;4.00;;;;;;;9.02;81.91;97190.77;105305;1309;29319;-83
2021/11/20 09:28:05;;;;;;;7.60;4.80;;;;;;;9.04;81.79;97197.77;105286;1314;28667;-85
2021/11/20 09:30:40;;;;;;;5.90;4.30;;;;;;;9.07;82.25;97196.82;105284;1315;27280;-84
2021/11/20 09:33:12;;;;;;;5.10;4.00;;;;;;;9.11;82.21;97194.04;105362;1309;31826;-85
2021/11/20 09:35:45;;;;;;;7.50;4.00;;;;;;;9.14;81.70;97183.38;105352;1309;27116;-85
2021/11/20 09:38:18;;;;;;;4.10;3.10;;;;;;;9.17;80.93;97170.70;105363;1311;28040;-85
2021/11/20 09:40:53;;;;;;;6.20;3.40;;;;;;;9.25;80.89;97169.33;105346;1313;27048;-84
2021/11/20 09:43:28;;;;;;;5.70;3.50;;;;;;;9.32;80.92;97169.27;105266;1313;63786;-83
2021/11/20 09:46:12;;;;;;;4.90;3.40;;;;;;;9.33;80.84;97172.08;105310;1310;28129;-85
2021/11/20 09:48:46;;;;;;;5.80;3.50;;;;;;;9.32;80.67;97170.48;105298;1314;27444;-83
2021/11/20 09:51:25;;;;;;;6.90;3.70;;;;;;;9.29;80.32;97168.61;105321;1309;26640;-84
2021/11/20 09:53:57;;;;;;;6.90;4.40;;;;;;;9.25;80.45;97170.86;105317;1313;31373;-85
2021/11/20 09:56:38;;;;;;;7.00;4.60;;;;;;;9.24;80.61;97173.91;105342;1310;29048;-85
2021/11/20 09:59:19;;;;;;;5.40;3.90;;;;;;;9.26;80.68;97168.73;105334;1309;25518;-85
2021/11/20 10:01:57;;;;;;;7.30;4.30;;;;;;;9.27;80.55;97167.73;105341;1309;25488;-85
2021/11/20 10:04:33;;;;;;;5.50;3.70;;;;;;;9.24;80.35;97161.86;105351;1313;32733;-83
2021/11/20 10:07:17;;;;;;;5.70;3.30;;;;;;;9.24;80.50;97172.13;105321;1312;41364;-84
2021/11/20 10:09:52;;;;;;;5.60;3.30;;;;;;;9.26;80.01;97172.98;105342;1309;27730;-83
2021/11/20 10:12:33;;;;;;;4.60;3.30;;;;;;;9.23;79.56;97167.09;105287;1313;28831;-83
2021/11/20 10:15:15;;;;;;;8.70;3.30;;;;;;;9.20;79.66;97166.55;105078;1308;394789;-83
2021/11/20 10:17:50;;;;;;;4.60;3.30;;;;;;;9.20;79.33;97159.36;105365;1309;23892;-84
2021/11/20 10:20:38;;;;;;;5.40;2.90;;;;;;;9.27;79.19;97155.27;105297;1309;27691;-83
2021/11/20 10:23:30;;;;;;;5.90;3.00;;;;;;;9.32;79.42;97151.80;105293;1314;25435;-84
2021/11/20 10:26:35;;;;;;;8.10;4.20;;;;;;;9.35;79.59;97148.02;105318;1315;28860;-83
2021/11/20 10:29:47;;;;;;;7.30;4.10;;;;;;;9.35;79.41;97144.46;105368;1309;26697;-83
2021/11/20 10:32:35;;;;;;;4.10;2.80;;;;;;;9.34;79.27;97138.63;105337;1309;26238;-83
2021/11/20 10:35:16;;;;;;;4.90;3.30;;;;;;;9.34;79.50;97138.90;105355;1314;27958;-84
2021/11/20 10:37:52;;;;;;;4.30;3.10;;;;;;;9.32;79.65;97136.83;105322;1313;29521;-83
2021/11/20 10:40:37;;;;;;;3.80;2.80;;;;;;;9.30;79.29;97138.20;105350;1310;27138;-83
2021/11/20 10:43:17;;;;;;;6.90;3.50;;;;;;;9.33;79.00;97133.13;105314;1309;29559;-84
2021/11/20 10:45:52;;;;;;;5.30;3.70;;;;;;;9.32;78.86;97134.98;105317;1309;29581;-83
2021/11/20 10:48:41;;;;;;;4.10;3.20;;;;;;;9.26;79.13;97140.11;105364;1315;25465;-83
2021/11/20 10:51:53;;;;;;;7.10;3.80;;;;;;;9.20;79.47;97142.95;105394;1309;27970;-83
2021/11/20 10:55:03;;;;;;;4.00;2.90;;;;;;;9.19;79.73;97145.02;104927;1315;25807;-83
2021/11/20 10:58:05;;;;;;;5.30;3.30;;;;;;;9.21;79.31;97135.70;104872;1312;27423;-83
2021/11/20 11:00:58;;;;;;;8.00;2.70;;;;;;;9.23;79.16;97127.25;105297;1310;35446;-83
2021/11/20 11:03:39;;;;;;;6.80;4.40;;;;;;;9.28;78.89;97129.33;105353;1310;26194;-84
2021/11/20 11:06:35;;;;;;;5.70;3.80;;;;;;;9.33;79.34;97127.14;105363;1311;27436;-83
2021/11/20 11:09:32;;;;;;;4.80;2.90;;;;;;;9.39;79.45;97121.55;105351;1309;27545;-83
2021/11/20 11:12:11;;;;;;;3.60;2.60;;;;;;;9.40;78.88;97115.27;105354;1309;26463;-83
2021/11/20 11:15:04;;;;;;;3.90;2.70;;;;;;;9.34;78.34;97107.95;105386;1311;30470;-84
2021/11/20 11:17:57;;;;;;;3.80;2.90;;;;;;;9.41;78.71;97102.84;105326;1311;28697;-84
2021/11/20 11:20:34;;;;;;;3.80;2.90;;;;;;;9.61;79.06;97104.35;105371;1311;26713;-84
2021/11/20 11:23:23;;;;;;;4.80;2.70;;;;;;;9.75;78.49;97105.52;105318;1309;27716;-84
2021/11/20 11:25:58;;;;;;;3.10;2.30;;;;;;;9.75;77.95;97095.87;105370;1310;27398;-83
2021/11/20 11:28:35;;;;;;;3.80;2.30;;;;;;;9.68;77.56;97090.49;105366;1315;24011;-83
2021/11/20 11:31:22;;;;;;;2.20;1.80;;;;;;;9.66;77.67;97095.63;105299;1310;28217;-84
2021/11/20 11:33:56;;;;;;;3.30;2.40;;;;;;;9.63;77.48;97094.45;105355;1311;27357;-83
2021/11/20 11:36:41;;;;;;;3.50;2.80;;;;;;;9.56;77.45;97095.11;105303;1309;27918;-83
2021/11/20 11:39:39;;;;;;;4.00;2.60;;;;;;;9.54;78.09;97093.41;105409;1309;31874;-84
2021/11/20 11:42:27;;;;;;;5.10;3.60;;;;;;;9.52;78.37;97093.61;105389;1309;25316;-83
2021/11/20 11:45:07;;;;;;;2.50;2.20;;;;;;;9.50;78.31;97088.05;105324;1311;36846;-83
2021/11/20 11:47:57;;;;;;;9.70;5.70;;;;;;;9.45;78.40;97085.50;105341;1309;26817;-83
2021/11/20 11:51:00;;;;;;;19.70;10.00;;;;;;;9.39;78.85;97094.73;105369;1309;27321;-83
2021/11/20 11:53:40;;;;;;;30.80;13.70;;;;;;;9.35;79.38;97100.44;105297;1309;33736;-82
2021/11/20 11:56:25;;;;;;;7.40;4.50;;;;;;;9.33;79.86;97098.10;105360;1309;25096;-83
2021/11/20 11:59:22;;;;;;;14.50;7.30;;;;;;;9.32;80.39;97094.49;105382;1314;26148;-83
2021/11/20 12:02:15;;;;;;;20.80;10.00;;;;;;;9.28;80.92;97100.34;105334;1313;28951;-83
2021/11/20 12:04:48;;;;;;;8.10;4.90;;;;;;;9.24;81.12;97102.86;105355;1309;25130;-82
2021/11/20 12:07:47;;;;;;;9.70;5.60;;;;;;;9.20;81.61;97078.45;105336;1309;30444;-82
2021/11/20 12:10:34;;;;;;;3.80;2.10;;;;;;;9.17;82.07;97077.55;105371;1310;26202;-82
2021/11/20 12:13:10;;;;;;;2.20;1.70;;;;;;;9.18;82.54;97072.31;105314;1309;25996;-83